Terminal Aerodrome Forecast
Issued by NWS Twin Cities, MN

Home | Current Version | Previous Version | Graphics & Text | Print | Product List | Glossary On
Versions: 1 2 3 4 5 6 7 8 9 10 11 12 13 14 15 16 17 18 19 20 21 22 23 24 25 26 27 28
000
FTUS43 KMPX 190520
TAFMSP
TAF
KMSP 190520Z 1906/2012 29006KT P6SM SKC
     FM191200 VRB03KT P6SM SKC
     FM191600 18010KT P6SM SKC
     FM200000 17005KT P6SM SKC
     FM200300 17005KT P6SM SKC WS020/20040KT
     FM201000 16004KT P6SM FEW200=

USA.gov is the U.S. government's official web portal to all federal, state and local government web resources and services.